sensor_id;sensor_type;location;lat;lon;timestamp;P1;durP1;ratioP1;P2;durP2;ratioP2
8861;SDS011;4799;50.996;4.754;2022-08-02T00:01:26;4.13;;;2.77;;
8861;SDS011;4799;50.996;4.754;2022-08-02T00:03:52;5.13;;;3.17;;
8861;SDS011;4799;50.996;4.754;2022-08-02T00:06:17;4.00;;;2.60;;
8861;SDS011;4799;50.996;4.754;2022-08-02T00:08:43;2.63;;;2.40;;
8861;SDS011;4799;50.996;4.754;2022-08-02T00:11:09;5.73;;;2.90;;
8861;SDS011;4799;50.996;4.754;2022-08-02T00:13:35;3.97;;;2.40;;
8861;SDS011;4799;50.996;4.754;2022-08-02T00:16:00;5.10;;;2.60;;
8861;SDS011;4799;50.996;4.754;2022-08-02T00:18:27;4.37;;;2.80;;
8861;SDS011;4799;50.996;4.754;2022-08-02T00:20:53;3.93;;;2.47;;
8861;SDS011;4799;50.996;4.754;2022-08-02T00:23:18;7.70;;;3.00;;
8861;SDS011;4799;50.996;4.754;2022-08-02T00:25:44;3.80;;;2.63;;
8861;SDS011;4799;50.996;4.754;2022-08-02T00:28:10;6.73;;;2.60;;
8861;SDS011;4799;50.996;4.754;2022-08-02T00:30:36;5.77;;;2.40;;
8861;SDS011;4799;50.996;4.754;2022-08-02T00:33:02;5.57;;;2.63;;
8861;SDS011;4799;50.996;4.754;2022-08-02T00:35:30;4.83;;;2.73;;
8861;SDS011;4799;50.996;4.754;2022-08-02T00:37:56;6.50;;;2.80;;
8861;SDS011;4799;50.996;4.754;2022-08-02T00:40:22;4.53;;;2.93;;
8861;SDS011;4799;50.996;4.754;2022-08-02T00:43:02;3.63;;;2.50;;
8861;SDS011;4799;50.996;4.754;2022-08-02T00:45:31;3.33;;;2.50;;
8861;SDS011;4799;50.996;4.754;2022-08-02T00:47:58;4.97;;;2.37;;
8861;SDS011;4799;50.996;4.754;2022-08-02T00:50:24;3.20;;;2.80;;
8861;SDS011;4799;50.996;4.754;2022-08-02T00:52:50;4.43;;;2.50;;
8861;SDS011;4799;50.996;4.754;2022-08-02T00:55:16;5.33;;;2.90;;
8861;SDS011;4799;50.996;4.754;2022-08-02T00:57:42;4.10;;;2.77;;
8861;SDS011;4799;50.996;4.754;2022-08-02T01:00:08;3.63;;;2.70;;
8861;SDS011;4799;50.996;4.754;2022-08-02T01:02:34;5.47;;;3.10;;
8861;SDS011;4799;50.996;4.754;2022-08-02T01:04:59;4.73;;;2.77;;
8861;SDS011;4799;50.996;4.754;2022-08-02T01:07:25;3.87;;;2.60;;
8861;SDS011;4799;50.996;4.754;2022-08-02T01:09:52;3.17;;;2.83;;
8861;SDS011;4799;50.996;4.754;2022-08-02T01:12:17;4.00;;;2.47;;
8861;SDS011;4799;50.996;4.754;2022-08-02T01:14:45;4.67;;;2.87;;
8861;SDS011;4799;50.996;4.754;2022-08-02T01:26:02;4.67;;;2.67;;
8861;SDS011;4799;50.996;4.754;2022-08-02T01:34:38;3.90;;;2.40;;
8861;SDS011;4799;50.996;4.754;2022-08-02T01:37:23;2.90;;;2.30;;
8861;SDS011;4799;50.996;4.754;2022-08-02T01:39:51;3.83;;;2.73;;
8861;SDS011;4799;50.996;4.754;2022-08-02T01:42:20;3.17;;;2.70;;
8861;SDS011;4799;50.996;4.754;2022-08-02T01:44:48;5.73;;;3.40;;
8861;SDS011;4799;50.996;4.754;2022-08-02T01:47:18;4.37;;;3.20;;
8861;SDS011;4799;50.996;4.754;2022-08-02T01:49:48;4.80;;;2.80;;
8861;SDS011;4799;50.996;4.754;2022-08-02T01:52:17;4.50;;;3.10;;
8861;SDS011;4799;50.996;4.754;2022-08-02T01:54:46;5.37;;;3.40;;
8861;SDS011;4799;50.996;4.754;2022-08-02T01:57:20;6.63;;;3.70;;
8861;SDS011;4799;50.996;4.754;2022-08-02T01:59:48;5.57;;;3.50;;
8861;SDS011;4799;50.996;4.754;2022-08-02T02:02:15;6.10;;;3.40;;
8861;SDS011;4799;50.996;4.754;2022-08-02T02:04:44;4.80;;;3.23;;
8861;SDS011;4799;50.996;4.754;2022-08-02T02:07:11;4.87;;;3.40;;
8861;SDS011;4799;50.996;4.754;2022-08-02T02:09:39;6.33;;;3.87;;
8861;SDS011;4799;50.996;4.754;2022-08-02T02:12:07;6.20;;;3.80;;
8861;SDS011;4799;50.996;4.754;2022-08-02T02:14:36;5.83;;;3.47;;
8861;SDS011;4799;50.996;4.754;2022-08-02T02:17:03;3.97;;;3.57;;
8861;SDS011;4799;50.996;4.754;2022-08-02T02:19:30;4.03;;;3.40;;
8861;SDS011;4799;50.996;4.754;2022-08-02T02:21:59;5.17;;;3.20;;
8861;SDS011;4799;50.996;4.754;2022-08-02T02:24:25;4.03;;;3.43;;
8861;SDS011;4799;50.996;4.754;2022-08-02T02:26:51;5.70;;;3.87;;
8861;SDS011;4799;50.996;4.754;2022-08-02T02:29:19;5.67;;;3.37;;
8861;SDS011;4799;50.996;4.754;2022-08-02T02:31:47;5.03;;;3.83;;
8861;SDS011;4799;50.996;4.754;2022-08-02T02:34:37;7.63;;;3.90;;
8861;SDS011;4799;50.996;4.754;2022-08-02T02:37:07;5.93;;;3.67;;
8861;SDS011;4799;50.996;4.754;2022-08-02T02:39:38;4.40;;;4.00;;
8861;SDS011;4799;50.996;4.754;2022-08-02T02:42:06;6.03;;;3.97;;
8861;SDS011;4799;50.996;4.754;2022-08-02T02:44:34;5.50;;;4.20;;
8861;SDS011;4799;50.996;4.754;2022-08-02T02:47:02;4.73;;;4.17;;
8861;SDS011;4799;50.996;4.754;2022-08-02T02:49:30;4.93;;;3.73;;
8861;SDS011;4799;50.996;4.754;2022-08-02T02:51:59;5.30;;;3.73;;
8861;SDS011;4799;50.996;4.754;2022-08-02T02:54:27;5.70;;;4.37;;
8861;SDS011;4799;50.996;4.754;2022-08-02T02:56:54;4.50;;;3.87;;
8861;SDS011;4799;50.996;4.754;2022-08-02T02:59:22;4.73;;;4.03;;
8861;SDS011;4799;50.996;4.754;2022-08-02T03:01:48;4.67;;;4.20;;
8861;SDS011;4799;50.996;4.754;2022-08-02T03:04:15;4.53;;;3.37;;
8861;SDS011;4799;50.996;4.754;2022-08-02T03:06:41;6.77;;;4.23;;
8861;SDS011;4799;50.996;4.754;2022-08-02T03:09:08;4.30;;;3.50;;
8861;SDS011;4799;50.996;4.754;2022-08-02T03:11:34;3.70;;;3.20;;
8861;SDS011;4799;50.996;4.754;2022-08-02T03:14:01;5.10;;;3.50;;
8861;SDS011;4799;50.996;4.754;2022-08-02T03:16:28;5.47;;;4.00;;
8861;SDS011;4799;50.996;4.754;2022-08-02T03:18:54;4.90;;;4.40;;
8861;SDS011;4799;50.996;4.754;2022-08-02T03:21:22;6.37;;;4.10;;
8861;SDS011;4799;50.996;4.754;2022-08-02T03:23:48;5.13;;;4.13;;
8861;SDS011;4799;50.996;4.754;2022-08-02T03:26:15;4.30;;;3.90;;
8861;SDS011;4799;50.996;4.754;2022-08-02T03:28:41;4.27;;;3.37;;
8861;SDS011;4799;50.996;4.754;2022-08-02T03:31:07;5.47;;;4.17;;
8861;SDS011;4799;50.996;4.754;2022-08-02T03:33:33;5.17;;;3.87;;
8861;SDS011;4799;50.996;4.754;2022-08-02T03:36:18;5.07;;;4.30;;
8861;SDS011;4799;50.996;4.754;2022-08-02T03:38:46;4.60;;;4.20;;
8861;SDS011;4799;50.996;4.754;2022-08-02T03:41:15;4.00;;;3.53;;
8861;SDS011;4799;50.996;4.754;2022-08-02T03:43:43;6.80;;;4.10;;
8861;SDS011;4799;50.996;4.754;2022-08-02T03:46:11;5.17;;;4.00;;
8861;SDS011;4799;50.996;4.754;2022-08-02T03:48:38;4.30;;;3.90;;
8861;SDS011;4799;50.996;4.754;2022-08-02T03:51:05;4.20;;;3.60;;
8861;SDS011;4799;50.996;4.754;2022-08-02T03:53:32;5.40;;;4.33;;
8861;SDS011;4799;50.996;4.754;2022-08-02T03:55:59;5.87;;;4.50;;
8861;SDS011;4799;50.996;4.754;2022-08-02T03:58:25;4.97;;;4.00;;
8861;SDS011;4799;50.996;4.754;2022-08-02T04:00:52;6.57;;;4.67;;
8861;SDS011;4799;50.996;4.754;2022-08-02T04:03:19;5.30;;;4.77;;
8861;SDS011;4799;50.996;4.754;2022-08-02T04:05:44;5.00;;;4.13;;
8861;SDS011;4799;50.996;4.754;2022-08-02T04:08:11;5.20;;;4.60;;
8861;SDS011;4799;50.996;4.754;2022-08-02T04:10:36;4.70;;;4.30;;
8861;SDS011;4799;50.996;4.754;2022-08-02T04:13:26;5.87;;;4.37;;
8861;SDS011;4799;50.996;4.754;2022-08-02T04:15:55;4.90;;;4.40;;
8861;SDS011;4799;50.996;4.754;2022-08-02T04:18:32;7.13;;;4.90;;
8861;SDS011;4799;50.996;4.754;2022-08-02T04:21:02;8.87;;;5.17;;
8861;SDS011;4799;50.996;4.754;2022-08-02T04:23:29;5.70;;;4.77;;
8861;SDS011;4799;50.996;4.754;2022-08-02T04:26:00;4.90;;;4.47;;
8861;SDS011;4799;50.996;4.754;2022-08-02T04:28:27;5.47;;;4.70;;
8861;SDS011;4799;50.996;4.754;2022-08-02T04:30:54;7.37;;;4.53;;
8861;SDS011;4799;50.996;4.754;2022-08-02T04:33:22;4.80;;;4.40;;
8861;SDS011;4799;50.996;4.754;2022-08-02T04:35:49;5.13;;;4.63;;
8861;SDS011;4799;50.996;4.754;2022-08-02T04:38:15;5.67;;;4.70;;
8861;SDS011;4799;50.996;4.754;2022-08-02T04:40:51;5.77;;;4.53;;
8861;SDS011;4799;50.996;4.754;2022-08-02T04:43:18;5.67;;;4.73;;
8861;SDS011;4799;50.996;4.754;2022-08-02T04:45:45;6.53;;;4.67;;
8861;SDS011;4799;50.996;4.754;2022-08-02T04:48:13;5.73;;;4.47;;
8861;SDS011;4799;50.996;4.754;2022-08-02T04:50:39;5.60;;;4.40;;
8861;SDS011;4799;50.996;4.754;2022-08-02T04:53:05;4.57;;;4.17;;
8861;SDS011;4799;50.996;4.754;2022-08-02T04:55:31;5.07;;;4.57;;
8861;SDS011;4799;50.996;4.754;2022-08-02T04:57:57;4.97;;;4.37;;
8861;SDS011;4799;50.996;4.754;2022-08-02T05:00:24;5.23;;;4.50;;
8861;SDS011;4799;50.996;4.754;2022-08-02T05:02:51;5.73;;;4.60;;
8861;SDS011;4799;50.996;4.754;2022-08-02T05:05:18;4.87;;;4.43;;
8861;SDS011;4799;50.996;4.754;2022-08-02T05:07:44;5.70;;;4.70;;
8861;SDS011;4799;50.996;4.754;2022-08-02T05:10:10;5.93;;;4.20;;
8861;SDS011;4799;50.996;4.754;2022-08-02T05:12:36;6.00;;;4.50;;
8861;SDS011;4799;50.996;4.754;2022-08-02T05:15:03;5.07;;;4.60;;
8861;SDS011;4799;50.996;4.754;2022-08-02T05:17:33;5.63;;;4.47;;
8861;SDS011;4799;50.996;4.754;2022-08-02T05:19:58;5.27;;;4.37;;
8861;SDS011;4799;50.996;4.754;2022-08-02T05:22:24;5.77;;;4.40;;
8861;SDS011;4799;50.996;4.754;2022-08-02T05:24:50;4.40;;;4.10;;
8861;SDS011;4799;50.996;4.754;2022-08-02T05:27:16;6.77;;;4.30;;
8861;SDS011;4799;50.996;4.754;2022-08-02T05:29:41;5.27;;;4.43;;
8861;SDS011;4799;50.996;4.754;2022-08-02T05:32:08;4.80;;;4.23;;
8861;SDS011;4799;50.996;4.754;2022-08-02T05:34:34;4.27;;;3.93;;
8861;SDS011;4799;50.996;4.754;2022-08-02T05:37:00;5.73;;;3.70;;
8861;SDS011;4799;50.996;4.754;2022-08-02T05:39:25;5.17;;;4.60;;
8861;SDS011;4799;50.996;4.754;2022-08-02T05:41:51;5.30;;;4.30;;
8861;SDS011;4799;50.996;4.754;2022-08-02T05:44:17;4.47;;;3.90;;
8861;SDS011;4799;50.996;4.754;2022-08-02T05:46:45;5.43;;;4.37;;
8861;SDS011;4799;50.996;4.754;2022-08-02T05:49:11;7.27;;;3.93;;
8861;SDS011;4799;50.996;4.754;2022-08-02T05:51:38;4.30;;;3.90;;
8861;SDS011;4799;50.996;4.754;2022-08-02T05:57:00;5.00;;;4.40;;
8861;SDS011;4799;50.996;4.754;2022-08-02T06:05:16;4.43;;;4.03;;
8861;SDS011;4799;50.996;4.754;2022-08-02T06:07:45;5.60;;;4.43;;
8861;SDS011;4799;50.996;4.754;2022-08-02T06:10:13;4.47;;;4.07;;
8861;SDS011;4799;50.996;4.754;2022-08-02T06:12:44;4.70;;;4.17;;
8861;SDS011;4799;50.996;4.754;2022-08-02T06:15:20;7.97;;;4.40;;
8861;SDS011;4799;50.996;4.754;2022-08-02T06:17:46;4.77;;;4.00;;
8861;SDS011;4799;50.996;4.754;2022-08-02T06:20:12;5.00;;;4.13;;
8861;SDS011;4799;50.996;4.754;2022-08-02T06:22:40;4.37;;;3.77;;
8861;SDS011;4799;50.996;4.754;2022-08-02T06:25:07;5.20;;;4.70;;
8861;SDS011;4799;50.996;4.754;2022-08-02T06:27:34;4.93;;;4.50;;
8861;SDS011;4799;50.996;4.754;2022-08-02T06:30:02;4.73;;;4.27;;
8861;SDS011;4799;50.996;4.754;2022-08-02T06:32:31;4.50;;;3.87;;
8861;SDS011;4799;50.996;4.754;2022-08-02T06:35:00;4.37;;;3.83;;
8861;SDS011;4799;50.996;4.754;2022-08-02T06:37:44;6.13;;;4.47;;
8861;SDS011;4799;50.996;4.754;2022-08-02T06:40:24;5.53;;;4.20;;
8861;SDS011;4799;50.996;4.754;2022-08-02T06:43:04;5.33;;;4.47;;
8861;SDS011;4799;50.996;4.754;2022-08-02T06:45:37;6.30;;;4.40;;
8861;SDS011;4799;50.996;4.754;2022-08-02T06:48:03;8.77;;;4.80;;
8861;SDS011;4799;50.996;4.754;2022-08-02T06:50:30;18.27;;;10.10;;
8861;SDS011;4799;50.996;4.754;2022-08-02T06:52:56;6.97;;;5.33;;
8861;SDS011;4799;50.996;4.754;2022-08-02T06:55:22;8.13;;;5.00;;
8861;SDS011;4799;50.996;4.754;2022-08-02T06:57:48;10.43;;;5.53;;
8861;SDS011;4799;50.996;4.754;2022-08-02T07:00:13;5.20;;;4.70;;
8861;SDS011;4799;50.996;4.754;2022-08-02T07:02:39;5.20;;;4.70;;
8861;SDS011;4799;50.996;4.754;2022-08-02T07:05:06;7.40;;;4.57;;
8861;SDS011;4799;50.996;4.754;2022-08-02T07:07:32;5.20;;;4.70;;
8861;SDS011;4799;50.996;4.754;2022-08-02T07:09:58;6.63;;;4.80;;
8861;SDS011;4799;50.996;4.754;2022-08-02T07:12:24;6.43;;;4.40;;
8861;SDS011;4799;50.996;4.754;2022-08-02T07:14:54;5.10;;;4.60;;
8861;SDS011;4799;50.996;4.754;2022-08-02T07:17:19;14.23;;;5.10;;
8861;SDS011;4799;50.996;4.754;2022-08-02T07:19:45;9.27;;;4.73;;
8861;SDS011;4799;50.996;4.754;2022-08-02T07:22:11;7.73;;;4.80;;
8861;SDS011;4799;50.996;4.754;2022-08-02T07:24:37;5.00;;;3.73;;
8861;SDS011;4799;50.996;4.754;2022-08-02T07:27:04;16.40;;;6.53;;
8861;SDS011;4799;50.996;4.754;2022-08-02T07:29:29;7.87;;;4.80;;
8861;SDS011;4799;50.996;4.754;2022-08-02T07:31:55;4.20;;;3.50;;
8861;SDS011;4799;50.996;4.754;2022-08-02T07:34:21;3.80;;;3.50;;
8861;SDS011;4799;50.996;4.754;2022-08-02T07:36:47;4.47;;;3.10;;
8861;SDS011;4799;50.996;4.754;2022-08-02T07:39:13;4.60;;;3.27;;
8861;SDS011;4799;50.996;4.754;2022-08-02T07:41:38;3.67;;;2.77;;
8861;SDS011;4799;50.996;4.754;2022-08-02T07:44:04;2.93;;;2.63;;
8861;SDS011;4799;50.996;4.754;2022-08-02T07:46:30;4.33;;;2.87;;
8861;SDS011;4799;50.996;4.754;2022-08-02T07:48:57;5.00;;;3.50;;
8861;SDS011;4799;50.996;4.754;2022-08-02T07:51:23;4.03;;;2.97;;
8861;SDS011;4799;50.996;4.754;2022-08-02T07:53:49;3.10;;;2.77;;
8861;SDS011;4799;50.996;4.754;2022-08-02T07:56:14;3.30;;;2.93;;
8861;SDS011;4799;50.996;4.754;2022-08-02T07:58:40;3.17;;;2.70;;
8861;SDS011;4799;50.996;4.754;2022-08-02T08:01:06;2.50;;;2.23;;
8861;SDS011;4799;50.996;4.754;2022-08-02T08:03:33;3.67;;;2.50;;
8861;SDS011;4799;50.996;4.754;2022-08-02T08:05:59;2.67;;;2.33;;
8861;SDS011;4799;50.996;4.754;2022-08-02T08:08:25;4.20;;;2.53;;
8861;SDS011;4799;50.996;4.754;2022-08-02T08:10:51;2.73;;;2.37;;
8861;SDS011;4799;50.996;4.754;2022-08-02T08:13:17;3.13;;;2.10;;
8861;SDS011;4799;50.996;4.754;2022-08-02T08:15:43;2.50;;;2.30;;
8861;SDS011;4799;50.996;4.754;2022-08-02T08:18:09;3.60;;;2.17;;
8861;SDS011;4799;50.996;4.754;2022-08-02T08:20:36;3.97;;;2.13;;
8861;SDS011;4799;50.996;4.754;2022-08-02T08:23:02;2.20;;;2.00;;
8861;SDS011;4799;50.996;4.754;2022-08-02T08:25:28;2.00;;;1.70;;
8861;SDS011;4799;50.996;4.754;2022-08-02T08:27:54;1.80;;;1.70;;
8861;SDS011;4799;50.996;4.754;2022-08-02T08:30:20;2.17;;;1.97;;
8861;SDS011;4799;50.996;4.754;2022-08-02T08:32:47;2.57;;;1.73;;
8861;SDS011;4799;50.996;4.754;2022-08-02T08:35:13;2.13;;;1.90;;
8861;SDS011;4799;50.996;4.754;2022-08-02T08:37:39;1.70;;;1.60;;
8861;SDS011;4799;50.996;4.754;2022-08-02T08:40:06;5.07;;;2.63;;
8861;SDS011;4799;50.996;4.754;2022-08-02T08:42:34;2.90;;;2.00;;
8861;SDS011;4799;50.996;4.754;2022-08-02T08:45:01;7.13;;;2.07;;
8861;SDS011;4799;50.996;4.754;2022-08-02T08:47:32;9.27;;;2.17;;
8861;SDS011;4799;50.996;4.754;2022-08-02T08:50:07;2.43;;;1.80;;
8861;SDS011;4799;50.996;4.754;2022-08-02T08:52:35;2.83;;;1.70;;
8861;SDS011;4799;50.996;4.754;2022-08-02T08:55:11;3.93;;;1.77;;
8861;SDS011;4799;50.996;4.754;2022-08-02T08:57:41;2.13;;;1.80;;
8861;SDS011;4799;50.996;4.754;2022-08-02T09:00:11;2.07;;;1.80;;
8861;SDS011;4799;50.996;4.754;2022-08-02T09:02:39;3.33;;;1.60;;
8861;SDS011;4799;50.996;4.754;2022-08-02T09:05:10;2.00;;;1.70;;
8861;SDS011;4799;50.996;4.754;2022-08-02T09:07:38;2.03;;;1.83;;
8861;SDS011;4799;50.996;4.754;2022-08-02T09:15:44;3.47;;;2.20;;
8861;SDS011;4799;50.996;4.754;2022-08-02T09:18:31;3.80;;;1.80;;
8861;SDS011;4799;50.996;4.754;2022-08-02T09:20:59;2.17;;;1.90;;
8861;SDS011;4799;50.996;4.754;2022-08-02T09:23:37;2.83;;;1.97;;
8861;SDS011;4799;50.996;4.754;2022-08-02T09:26:05;2.63;;;2.00;;
8861;SDS011;4799;50.996;4.754;2022-08-02T09:28:33;3.07;;;1.90;;
8861;SDS011;4799;50.996;4.754;2022-08-02T09:31:16;2.50;;;1.80;;
8861;SDS011;4799;50.996;4.754;2022-08-02T09:33:45;3.73;;;2.33;;
8861;SDS011;4799;50.996;4.754;2022-08-02T09:36:19;2.93;;;1.97;;
8861;SDS011;4799;50.996;4.754;2022-08-02T09:38:53;2.17;;;1.97;;
8861;SDS011;4799;50.996;4.754;2022-08-02T09:41:24;5.30;;;2.20;;
8861;SDS011;4799;50.996;4.754;2022-08-02T09:43:52;3.97;;;1.90;;
8861;SDS011;4799;50.996;4.754;2022-08-02T09:46:26;3.40;;;2.13;;
8861;SDS011;4799;50.996;4.754;2022-08-02T09:49:02;2.67;;;2.20;;
8861;SDS011;4799;50.996;4.754;2022-08-02T09:51:33;4.10;;;2.00;;
8861;SDS011;4799;50.996;4.754;2022-08-02T09:54:05;3.40;;;2.13;;
8861;SDS011;4799;50.996;4.754;2022-08-02T09:56:39;3.00;;;1.97;;
8861;SDS011;4799;50.996;4.754;2022-08-02T09:59:13;4.40;;;1.97;;
8861;SDS011;4799;50.996;4.754;2022-08-02T10:01:40;3.40;;;1.67;;
8861;SDS011;4799;50.996;4.754;2022-08-02T10:04:08;2.83;;;1.90;;
8861;SDS011;4799;50.996;4.754;2022-08-02T10:06:36;2.47;;;1.80;;
8861;SDS011;4799;50.996;4.754;2022-08-02T10:09:04;2.07;;;1.87;;
8861;SDS011;4799;50.996;4.754;2022-08-02T10:11:30;2.27;;;2.07;;
8861;SDS011;4799;50.996;4.754;2022-08-02T10:13:57;3.10;;;1.97;;
8861;SDS011;4799;50.996;4.754;2022-08-02T10:16:23;3.33;;;1.97;;
8861;SDS011;4799;50.996;4.754;2022-08-02T10:18:49;3.17;;;1.63;;
8861;SDS011;4799;50.996;4.754;2022-08-02T10:24:09;2.33;;;1.80;;
8861;SDS011;4799;50.996;4.754;2022-08-02T10:26:41;2.10;;;1.90;;
8861;SDS011;4799;50.996;4.754;2022-08-02T10:29:09;2.53;;;1.70;;
8861;SDS011;4799;50.996;4.754;2022-08-02T10:31:37;2.60;;;1.73;;
8861;SDS011;4799;50.996;4.754;2022-08-02T10:34:20;2.03;;;1.70;;
8861;SDS011;4799;50.996;4.754;2022-08-02T10:36:51;4.10;;;1.67;;
8861;SDS011;4799;50.996;4.754;2022-08-02T10:39:18;1.70;;;1.60;;
8861;SDS011;4799;50.996;4.754;2022-08-02T10:41:48;2.08;;;1.58;;
8861;SDS011;4799;50.996;4.754;2022-08-02T10:44:28;3.22;;;1.60;;
8861;SDS011;4799;50.996;4.754;2022-08-02T10:49:50;1.50;;;1.40;;
8861;SDS011;4799;50.996;4.754;2022-08-02T10:52:22;2.60;;;1.50;;
8861;SDS011;4799;50.996;4.754;2022-08-02T10:54:59;1.75;;;1.50;;
8861;SDS011;4799;50.996;4.754;2022-08-02T10:57:26;2.58;;;1.48;;
8861;SDS011;4799;50.996;4.754;2022-08-02T10:59:57;3.58;;;1.40;;
8861;SDS011;4799;50.996;4.754;2022-08-02T11:02:38;2.75;;;1.30;;
8861;SDS011;4799;50.996;4.754;2022-08-02T11:05:14;1.65;;;1.30;;
8861;SDS011;4799;50.996;4.754;2022-08-02T11:07:48;4.38;;;1.30;;
8861;SDS011;4799;50.996;4.754;2022-08-02T11:10:47;3.00;;;1.30;;
8861;SDS011;4799;50.996;4.754;2022-08-02T11:13:10;2.25;;;1.67;;
8861;SDS011;4799;50.996;4.754;2022-08-02T11:15:48;2.05;;;1.35;;
8861;SDS011;4799;50.996;4.754;2022-08-02T11:18:18;2.88;;;1.42;;
8861;SDS011;4799;50.996;4.754;2022-08-02T11:20:45;4.65;;;1.40;;
8861;SDS011;4799;50.996;4.754;2022-08-02T11:26:48;3.78;;;1.50;;
8861;SDS011;4799;50.996;4.754;2022-08-02T11:29:07;2.75;;;1.60;;
8861;SDS011;4799;50.996;4.754;2022-08-02T11:31:42;4.07;;;1.60;;
8861;SDS011;4799;50.996;4.754;2022-08-02T11:34:09;2.65;;;1.50;;
8861;SDS011;4799;50.996;4.754;2022-08-02T11:39:15;5.70;;;1.70;;
8861;SDS011;4799;50.996;4.754;2022-08-02T11:41:47;2.03;;;1.40;;
8861;SDS011;4799;50.996;4.754;2022-08-02T11:44:17;2.15;;;1.30;;
8861;SDS011;4799;50.996;4.754;2022-08-02T11:46:43;1.55;;;1.40;;
8861;SDS011;4799;50.996;4.754;2022-08-02T11:49:15;2.13;;;1.60;;
8861;SDS011;4799;50.996;4.754;2022-08-02T11:51:52;2.08;;;1.40;;
8861;SDS011;4799;50.996;4.754;2022-08-02T11:54:42;2.80;;;1.40;;
8861;SDS011;4799;50.996;4.754;2022-08-02T11:57:18;4.50;;;1.55;;
8861;SDS011;4799;50.996;4.754;2022-08-02T11:59:50;3.83;;;1.50;;
8861;SDS011;4799;50.996;4.754;2022-08-02T12:02:18;1.75;;;1.30;;
8861;SDS011;4799;50.996;4.754;2022-08-02T12:04:52;3.90;;;1.70;;
8861;SDS011;4799;50.996;4.754;2022-08-02T12:09:57;5.07;;;1.80;;
8861;SDS011;4799;50.996;4.754;2022-08-02T12:12:25;2.28;;;1.48;;
8861;SDS011;4799;50.996;4.754;2022-08-02T12:14:52;3.20;;;1.30;;
8861;SDS011;4799;50.996;4.754;2022-08-02T12:17:21;1.42;;;1.30;;
8861;SDS011;4799;50.996;4.754;2022-08-02T12:20:10;3.42;;;1.40;;
8861;SDS011;4799;50.996;4.754;2022-08-02T12:22:36;4.05;;;1.40;;
8861;SDS011;4799;50.996;4.754;2022-08-02T12:25:17;3.70;;;1.52;;
8861;SDS011;4799;50.996;4.754;2022-08-02T12:27:45;5.68;;;1.58;;
8861;SDS011;4799;50.996;4.754;2022-08-02T12:30:12;4.40;;;1.40;;
8861;SDS011;4799;50.996;4.754;2022-08-02T12:32:42;2.70;;;1.58;;
8861;SDS011;4799;50.996;4.754;2022-08-02T12:35:10;2.28;;;1.58;;
8861;SDS011;4799;50.996;4.754;2022-08-02T12:37:45;6.20;;;1.65;;
8861;SDS011;4799;50.996;4.754;2022-08-02T12:42:53;2.58;;;1.38;;
8861;SDS011;4799;50.996;4.754;2022-08-02T12:45:21;2.28;;;1.33;;
8861;SDS011;4799;50.996;4.754;2022-08-02T12:47:48;4.68;;;1.60;;
8861;SDS011;4799;50.996;4.754;2022-08-02T12:50:20;2.47;;;1.40;;
8861;SDS011;4799;50.996;4.754;2022-08-02T12:52:49;2.22;;;1.30;;
8861;SDS011;4799;50.996;4.754;2022-08-02T12:55:26;3.55;;;1.45;;
8861;SDS011;4799;50.996;4.754;2022-08-02T13:00:25;2.67;;;1.27;;
8861;SDS011;4799;50.996;4.754;2022-08-02T13:02:53;2.10;;;1.40;;
8861;SDS011;4799;50.996;4.754;2022-08-02T13:05:19;2.13;;;1.20;;
8861;SDS011;4799;50.996;4.754;2022-08-02T13:07:45;2.35;;;1.38;;
8861;SDS011;4799;50.996;4.754;2022-08-02T13:10:11;5.30;;;1.42;;
8861;SDS011;4799;50.996;4.754;2022-08-02T13:12:37;4.00;;;1.70;;
8861;SDS011;4799;50.996;4.754;2022-08-02T13:15:04;1.52;;;1.30;;
8861;SDS011;4799;50.996;4.754;2022-08-02T13:17:31;3.38;;;1.20;;
8861;SDS011;4799;50.996;4.754;2022-08-02T13:19:56;2.67;;;1.27;;
8861;SDS011;4799;50.996;4.754;2022-08-02T13:22:22;2.58;;;1.30;;
8861;SDS011;4799;50.996;4.754;2022-08-02T13:24:48;3.30;;;1.50;;
8861;SDS011;4799;50.996;4.754;2022-08-02T13:27:15;5.03;;;1.60;;
8861;SDS011;4799;50.996;4.754;2022-08-02T13:29:42;2.78;;;1.40;;
8861;SDS011;4799;50.996;4.754;2022-08-02T13:32:08;3.58;;;1.50;;
8861;SDS011;4799;50.996;4.754;2022-08-02T13:34:34;3.85;;;1.40;;
8861;SDS011;4799;50.996;4.754;2022-08-02T13:37:00;3.80;;;1.42;;
8861;SDS011;4799;50.996;4.754;2022-08-02T13:39:26;3.05;;;1.48;;
8861;SDS011;4799;50.996;4.754;2022-08-02T13:41:52;3.80;;;1.52;;
8861;SDS011;4799;50.996;4.754;2022-08-02T13:44:17;2.83;;;1.48;;
8861;SDS011;4799;50.996;4.754;2022-08-02T13:46:43;3.25;;;1.42;;
8861;SDS011;4799;50.996;4.754;2022-08-02T13:49:09;2.70;;;1.50;;
8861;SDS011;4799;50.996;4.754;2022-08-02T13:51:34;4.70;;;1.40;;
8861;SDS011;4799;50.996;4.754;2022-08-02T13:54:00;2.85;;;1.38;;
8861;SDS011;4799;50.996;4.754;2022-08-02T13:56:26;3.72;;;1.30;;
8861;SDS011;4799;50.996;4.754;2022-08-02T13:58:52;1.65;;;1.35;;
8861;SDS011;4799;50.996;4.754;2022-08-02T14:01:17;2.03;;;1.30;;
8861;SDS011;4799;50.996;4.754;2022-08-02T14:03:43;2.05;;;1.40;;
8861;SDS011;4799;50.996;4.754;2022-08-02T14:06:09;2.60;;;1.50;;
8861;SDS011;4799;50.996;4.754;2022-08-02T14:08:35;2.55;;;1.50;;
8861;SDS011;4799;50.996;4.754;2022-08-02T14:11:02;4.68;;;1.63;;
8861;SDS011;4799;50.996;4.754;2022-08-02T14:13:28;3.20;;;1.58;;
8861;SDS011;4799;50.996;4.754;2022-08-02T14:15:54;3.13;;;1.40;;
8861;SDS011;4799;50.996;4.754;2022-08-02T14:18:20;2.05;;;1.30;;
8861;SDS011;4799;50.996;4.754;2022-08-02T14:20:46;2.90;;;1.42;;
8861;SDS011;4799;50.996;4.754;2022-08-02T14:23:12;3.03;;;1.30;;
8861;SDS011;4799;50.996;4.754;2022-08-02T14:25:38;3.08;;;1.40;;
8861;SDS011;4799;50.996;4.754;2022-08-02T14:28:04;3.30;;;1.45;;
8861;SDS011;4799;50.996;4.754;2022-08-02T14:30:29;3.03;;;1.50;;
8861;SDS011;4799;50.996;4.754;2022-08-02T14:32:55;3.75;;;1.50;;
8861;SDS011;4799;50.996;4.754;2022-08-02T14:35:22;4.10;;;1.58;;
8861;SDS011;4799;50.996;4.754;2022-08-02T14:37:47;4.22;;;1.30;;
8861;SDS011;4799;50.996;4.754;2022-08-02T14:40:13;2.03;;;1.52;;
8861;SDS011;4799;50.996;4.754;2022-08-02T14:42:39;2.97;;;1.40;;
8861;SDS011;4799;50.996;4.754;2022-08-02T14:45:05;2.58;;;1.35;;
8861;SDS011;4799;50.996;4.754;2022-08-02T14:47:31;3.67;;;1.38;;
8861;SDS011;4799;50.996;4.754;2022-08-02T14:49:57;3.67;;;1.40;;
8861;SDS011;4799;50.996;4.754;2022-08-02T14:52:22;2.45;;;1.67;;
8861;SDS011;4799;50.996;4.754;2022-08-02T14:54:48;4.40;;;1.40;;
8861;SDS011;4799;50.996;4.754;2022-08-02T14:57:14;2.58;;;1.38;;
8861;SDS011;4799;50.996;4.754;2022-08-02T14:59:40;3.50;;;1.40;;
8861;SDS011;4799;50.996;4.754;2022-08-02T15:02:06;2.40;;;1.50;;
8861;SDS011;4799;50.996;4.754;2022-08-02T15:04:32;3.20;;;1.60;;
8861;SDS011;4799;50.996;4.754;2022-08-02T15:06:58;3.22;;;1.30;;
8861;SDS011;4799;50.996;4.754;2022-08-02T15:09:25;3.65;;;1.35;;
8861;SDS011;4799;50.996;4.754;2022-08-02T15:11:51;3.42;;;1.40;;
8861;SDS011;4799;50.996;4.754;2022-08-02T15:14:19;2.35;;;1.40;;
8861;SDS011;4799;50.996;4.754;2022-08-02T15:16:46;3.22;;;1.45;;
8861;SDS011;4799;50.996;4.754;2022-08-02T15:19:12;2.90;;;1.40;;
8861;SDS011;4799;50.996;4.754;2022-08-02T15:21:38;2.65;;;1.40;;
8861;SDS011;4799;50.996;4.754;2022-08-02T15:24:04;3.45;;;1.33;;
8861;SDS011;4799;50.996;4.754;2022-08-02T15:26:30;2.63;;;1.60;;
8861;SDS011;4799;50.996;4.754;2022-08-02T15:28:58;3.17;;;1.15;;
8861;SDS011;4799;50.996;4.754;2022-08-02T15:31:24;5.85;;;1.35;;
8861;SDS011;4799;50.996;4.754;2022-08-02T15:33:50;4.10;;;1.60;;
8861;SDS011;4799;50.996;4.754;2022-08-02T15:36:15;1.92;;;1.55;;
8861;SDS011;4799;50.996;4.754;2022-08-02T15:38:41;3.47;;;1.40;;
8861;SDS011;4799;50.996;4.754;2022-08-02T15:41:07;3.47;;;1.35;;
8861;SDS011;4799;50.996;4.754;2022-08-02T15:43:36;2.42;;;1.42;;
8861;SDS011;4799;50.996;4.754;2022-08-02T15:46:01;2.13;;;1.10;;
8861;SDS011;4799;50.996;4.754;2022-08-02T15:48:27;3.80;;;1.40;;
8861;SDS011;4799;50.996;4.754;2022-08-02T15:50:53;4.30;;;1.27;;
8861;SDS011;4799;50.996;4.754;2022-08-02T15:53:20;1.58;;;1.30;;
8861;SDS011;4799;50.996;4.754;2022-08-02T15:55:46;3.97;;;1.50;;
8861;SDS011;4799;50.996;4.754;2022-08-02T15:58:12;3.60;;;1.40;;
8861;SDS011;4799;50.996;4.754;2022-08-02T16:00:38;4.53;;;1.60;;
8861;SDS011;4799;50.996;4.754;2022-08-02T16:03:03;3.70;;;1.50;;
8861;SDS011;4799;50.996;4.754;2022-08-02T16:05:30;2.85;;;1.50;;
8861;SDS011;4799;50.996;4.754;2022-08-02T16:07:56;5.07;;;1.58;;
8861;SDS011;4799;50.996;4.754;2022-08-02T16:10:21;3.17;;;1.60;;